createdAt,value
2023-05-21T00:16:28.323Z,16.95
2023-05-21T00:36:32.702Z,17.11
2023-05-21T00:56:35.439Z,17.28
2023-05-21T01:16:38.422Z,17.28
2023-05-21T01:36:42.274Z,17.40
2023-05-21T01:56:45.037Z,17.60
2023-05-21T02:16:48.590Z,17.59
2023-05-21T02:36:53.824Z,17.44
2023-05-21T02:56:56.681Z,17.26
2023-05-21T03:16:59.833Z,17.18
2023-05-21T03:37:02.814Z,17.14
2023-05-21T03:57:05.833Z,17.18
2023-05-21T04:17:08.647Z,17.24
2023-05-21T04:37:11.733Z,17.33
2023-05-21T04:57:14.654Z,18.22
2023-05-21T05:17:17.758Z,20.08
2023-05-21T05:37:20.565Z,21.06
2023-05-21T05:57:23.505Z,21.65
2023-05-21T06:17:26.961Z,22.24
2023-05-21T06:37:30.033Z,21.69
2023-05-21T06:57:33.180Z,21.91
2023-05-21T07:17:35.981Z,22.41
2023-05-21T07:37:38.742Z,22.58
2023-05-21T07:57:41.469Z,22.65
2023-05-21T08:17:44.228Z,23.20
2023-05-21T08:37:47.116Z,22.95
2023-05-21T08:57:50.017Z,23.43
2023-05-21T09:17:52.766Z,23.71
2023-05-21T09:37:55.554Z,23.99
2023-05-21T09:57:58.272Z,24.10
2023-05-21T10:18:01.117Z,24.27
2023-05-21T10:38:03.832Z,24.59
2023-05-21T10:58:06.706Z,25.10
2023-05-21T11:18:10.976Z,25.14
2023-05-21T11:38:13.785Z,25.20
2023-05-21T11:58:17.857Z,25.31
2023-05-21T12:18:20.561Z,25.29
2023-05-21T12:38:23.388Z,24.94
2023-05-21T12:58:26.173Z,25.21
2023-05-21T13:18:29.074Z,25.41
2023-05-21T13:38:32.033Z,25.43
2023-05-21T13:58:36.128Z,25.18
2023-05-21T14:18:38.825Z,24.85
2023-05-21T14:38:41.892Z,24.66
2023-05-21T14:58:44.731Z,24.94
2023-05-21T15:18:47.388Z,24.57
2023-05-21T15:38:50.481Z,24.45
2023-05-21T15:58:53.382Z,24.61
2023-05-21T16:18:56.501Z,24.44
2023-05-21T16:38:59.306Z,24.09
2023-05-21T16:59:02.127Z,23.83
2023-05-21T17:19:04.853Z,23.66
2023-05-21T17:39:07.634Z,23.18
2023-05-21T17:59:10.579Z,22.26
2023-05-21T18:19:13.421Z,21.36
2023-05-21T18:39:16.284Z,20.99
2023-05-21T18:59:18.945Z,20.29
2023-05-21T19:19:22.044Z,19.75
2023-05-21T19:39:25.036Z,19.58
2023-05-21T19:59:27.804Z,19.04
2023-05-21T20:19:31.854Z,18.99
2023-05-21T20:39:34.596Z,18.29
2023-05-21T20:59:37.509Z,18.13
2023-05-21T21:19:40.236Z,17.70
2023-05-21T21:39:43.641Z,17.33
2023-05-21T21:59:46.489Z,17.04
2023-05-21T22:19:49.295Z,16.72
2023-05-21T22:39:52.198Z,16.43
2023-05-21T22:59:55.157Z,15.95
2023-05-21T23:19:58.980Z,15.49
2023-05-21T23:40:01.831Z,15.26
